createdAt,value
2023-04-19T04:38:43.471Z,54.90
2023-04-19T04:41:59.792Z,54.90
2023-04-19T04:45:14.011Z,55.35
2023-04-19T04:48:28.305Z,55.48
2023-04-19T04:51:43.979Z,55.64
2023-04-19T04:54:59.790Z,55.38
2023-04-19T04:58:20.733Z,54.27
2023-04-19T05:01:35.479Z,52.61
2023-04-19T05:04:49.901Z,53.82
2023-04-19T05:08:04.219Z,52.74
2023-04-19T05:11:19.865Z,51.39
2023-04-19T05:14:34.180Z,51.25
2023-04-19T05:17:48.662Z,50.90
2023-04-19T05:21:03.114Z,50.44
2023-04-19T05:24:18.314Z,51.34
2023-04-19T05:27:36.318Z,51.49
2023-04-19T05:30:50.487Z,51.02
2023-04-19T05:34:04.666Z,49.66
2023-04-19T05:37:21.810Z,49.17
2023-04-19T05:40:37.941Z,49.55
2023-04-19T05:44:05.208Z,49.11
2023-04-19T05:47:24.002Z,50.00
2023-04-19T05:50:41.814Z,49.34
2023-04-19T05:53:57.662Z,49.32
2023-04-19T05:57:19.924Z,50.24
2023-04-19T06:00:50.004Z,49.87
2023-04-19T06:04:32.157Z,49.03
2023-04-19T06:07:59.301Z,49.48
2023-04-19T06:11:49.984Z,48.02
2023-04-19T06:15:13.756Z,47.51
2023-04-19T06:18:32.660Z,47.74
2023-04-19T06:21:54.932Z,46.74
2023-04-19T06:25:28.269Z,46.91
2023-04-19T06:28:45.487Z,46.42
2023-04-19T06:32:05.226Z,46.66
2023-04-19T06:36:03.265Z,47.46
2023-04-19T06:39:24.880Z,45.56
2023-04-19T06:42:44.813Z,43.96
2023-04-19T06:46:35.623Z,43.39
2023-04-19T06:50:16.830Z,43.03
2023-04-19T06:53:47.412Z,41.70
2023-04-19T06:57:06.712Z,42.30
2023-04-19T07:00:21.409Z,41.07
2023-04-19T07:03:36.026Z,39.23
2023-04-19T07:10:41.916Z,39.84
2023-04-19T07:14:03.249Z,39.62
2023-04-19T07:17:47.961Z,38.55
2023-04-19T07:21:03.572Z,37.29
2023-04-19T07:24:32.793Z,38.49
2023-04-19T07:27:53.410Z,38.25
2023-04-19T07:31:07.862Z,37.51
2023-04-19T07:34:30.242Z,39.58
2023-04-19T07:37:46.033Z,38.54
2023-04-19T07:41:08.882Z,38.48
2023-04-19T07:44:50.784Z,38.45
2023-04-19T07:48:11.108Z,38.74
2023-04-19T07:51:31.824Z,38.59
2023-04-19T07:54:48.386Z,38.46
2023-04-19T07:58:09.105Z,38.42
2023-04-19T08:01:36.927Z,38.84
2023-04-19T08:04:53.104Z,39.26
2023-04-19T08:08:12.740Z,38.88
2023-04-19T08:11:37.054Z,37.86
2023-04-19T08:15:03.850Z,37.21
2023-04-19T08:18:45.884Z,37.72
2023-04-19T08:22:01.166Z,36.64
2023-04-19T08:25:26.529Z,36.68
2023-04-19T08:28:53.416Z,35.89
2023-04-19T08:32:22.482Z,35.38
2023-04-19T08:35:57.061Z,34.24
2023-04-19T08:39:29.171Z,33.69
2023-04-19T08:42:48.117Z,35.64
2023-04-19T08:46:14.523Z,32.90
2023-04-19T08:49:32.902Z,33.15
2023-04-19T08:53:20.900Z,33.42
2023-04-19T08:56:55.351Z,33.39
2023-04-19T09:00:38.689Z,34.79
2023-04-19T09:04:35.499Z,34.16
2023-04-19T09:08:16.542Z,33.90
2023-04-19T09:15:42.078Z,33.37
2023-04-19T09:19:15.271Z,32.80
2023-04-19T09:22:51.120Z,32.56
2023-04-19T09:26:22.727Z,33.26
2023-04-19T09:29:40.165Z,32.51
2023-04-19T09:33:14.851Z,32.83
2023-04-19T09:36:42.276Z,34.20
2023-04-19T09:40:32.479Z,32.13
2023-04-19T09:44:08.769Z,32.69
2023-04-19T09:47:37.887Z,31.64
2023-04-19T09:51:25.680Z,32.81
2023-04-19T09:54:40.170Z,31.94
2023-04-19T09:57:57.594Z,31.36
2023-04-19T10:01:20.897Z,29.78
2023-04-19T10:04:59.758Z,30.20
2023-04-19T10:08:31.235Z,30.86
2023-04-19T10:12:38.457Z,30.78
2023-04-19T10:19:30.438Z,31.25
2023-04-19T10:22:53.429Z,30.74
2023-04-19T10:26:18.317Z,31.92
2023-04-19T10:30:14.100Z,34.05
2023-04-19T10:38:36.524Z,32.96
2023-04-19T10:42:08.030Z,32.29
2023-04-19T10:45:57.809Z,29.70
2023-04-19T11:33:18.466Z,33.34
2023-04-19T11:37:25.134Z,33.38
2023-04-19T11:40:58.058Z,32.92
2023-04-19T11:44:23.130Z,32.36
2023-04-19T11:48:20.628Z,31.88
2023-04-19T11:51:49.679Z,31.69
2023-04-19T11:55:21.557Z,32.14
2023-04-19T11:59:07.390Z,32.36
2023-04-19T12:06:50.482Z,33.14
2023-04-19T12:10:30.811Z,31.95
2023-04-19T12:13:48.369Z,33.01
2023-04-19T12:21:40.143Z,38.01
2023-04-19T12:25:07.937Z,36.96
2023-04-19T12:28:32.666Z,37.74
2023-04-19T12:31:56.540Z,37.13
2023-04-19T12:35:44.424Z,36.56
2023-04-19T12:39:06.247Z,35.94
2023-04-19T12:42:22.442Z,35.39
2023-04-19T12:45:42.749Z,33.99
2023-04-19T12:49:04.628Z,34.71
2023-04-19T12:52:52.090Z,34.74
2023-04-19T12:56:13.843Z,35.08
2023-04-19T12:59:40.582Z,35.59
2023-04-19T13:03:05.514Z,35.66
2023-04-19T13:06:19.706Z,37.08
2023-04-19T13:09:37.700Z,38.73
2023-04-19T13:12:56.497Z,38.97
2023-04-19T13:16:12.166Z,39.53
2023-04-19T13:19:45.193Z,41.23
2023-04-19T13:22:59.763Z,41.73
2023-04-19T13:26:14.298Z,39.56
2023-04-19T13:29:37.508Z,39.74
2023-04-19T13:33:23.885Z,40.90
2023-04-19T13:37:00.400Z,41.01
2023-04-19T13:40:19.466Z,40.32
2023-04-19T13:43:41.646Z,41.33
2023-04-19T13:46:56.108Z,39.88
2023-04-19T13:50:11.337Z,40.33
2023-04-19T13:53:29.253Z,39.72
2023-04-19T13:56:43.766Z,41.55
2023-04-19T13:59:58.311Z,40.56
2023-04-19T14:03:12.906Z,40.66
2023-04-19T14:06:28.343Z,42.20
2023-04-19T14:09:44.867Z,41.82
2023-04-19T14:12:59.032Z,42.18
2023-04-19T14:16:13.314Z,41.50
2023-04-19T14:19:27.572Z,39.97
2023-04-19T14:22:41.813Z,40.54
2023-04-19T14:25:57.595Z,39.08
2023-04-19T14:29:11.833Z,38.94
2023-04-19T14:32:27.312Z,40.09
2023-04-19T14:35:43.088Z,38.67
2023-04-19T14:38:57.288Z,39.88
2023-04-19T14:42:13.058Z,39.84
2023-04-19T14:45:27.845Z,38.60
2023-04-19T14:48:42.799Z,37.66
2023-04-19T14:51:57.100Z,36.30
2023-04-19T14:55:12.249Z,38.06
2023-04-19T14:58:28.137Z,38.22
2023-04-19T15:01:42.498Z,37.09
2023-04-19T15:04:57.013Z,38.35
2023-04-19T15:08:26.840Z,38.20
2023-04-19T15:11:44.220Z,37.73
2023-04-19T15:14:59.845Z,38.57
2023-04-19T15:18:13.973Z,38.35
